Time;durP1;ratioP1;P1;durP2;ratioP2;P2;SDS_P1;SDS_P2;PMS_P1;PMS_P2;Temp;Humidity;BMP_temperature;BMP_pressure;BME280_temperature;BME280_humidity;BME280_pressure;Samples;Min_cycle;Max_cycle;Signal;HPM_P1;HPM_P2
2023/02/21 02:15:21;;;;;;;49.07;19.07;;;;;;;-142.75;100.00;77725.97;4972428;28;20500;-66
2023/02/21 02:17:52;;;;;;;44.10;18.88;;;;;;;-142.75;100.00;77712.16;4972349;28;20027;-66
2023/02/21 02:20:40;;;;;;;42.33;19.77;;;;;;;-142.75;100.00;77735.81;4955206;28;20026;-66
2023/02/21 02:23:31;;;;;;;42.10;19.23;;;;;;;-142.75;100.00;77716.09;4972422;28;20027;-66
2023/02/21 02:26:18;;;;;;;51.00;20.08;;;;;;;-142.75;100.00;77706.25;4972352;28;20085;-66
2023/02/21 02:29:06;;;;;;;44.55;19.85;;;;;;;-142.75;100.00;77700.34;4972102;28;20058;-66
2023/02/21 02:31:59;;;;;;;50.17;20.45;;;;;;;-142.75;100.00;77700.34;4972235;28;20030;-66
2023/02/21 02:34:34;;;;;;;44.45;18.80;;;;;;;-142.75;100.00;77704.28;4972292;28;20408;-66
2023/02/21 02:37:31;;;;;;;43.33;19.95;;;;;;;-142.75;100.00;77700.34;4972356;28;20435;-67
2023/02/21 02:40:01;;;;;;;;;;;;;;;-142.75;100.00;77690.50;4963579;28;20042;-66
2023/02/21 02:43:06;;;;;;;49.92;20.17;;;;;;;-142.75;100.00;77692.47;4972115;28;19920;-66
2023/02/21 02:45:50;;;;;;;55.80;21.08;;;;;;;-142.75;100.00;77688.53;4960888;28;20106;-66
2023/02/21 02:48:22;;;;;;;58.17;22.15;;;;;;;-142.75;100.00;77704.28;4971945;28;20022;-66
2023/02/21 02:50:49;;;;;;;53.70;21.77;;;;;;;-142.75;100.00;77704.28;4971838;28;20036;-66
2023/02/21 02:53:18;;;;;;;50.78;22.60;;;;;;;-142.75;100.00;77706.25;4971986;28;20492;-66
2023/02/21 02:55:50;;;;;;;48.22;22.83;;;;;;;-142.75;100.00;77696.41;4971986;28;20029;-67
2023/02/21 02:58:17;;;;;;;53.58;22.85;;;;;;;-142.75;100.00;77700.34;4971673;28;20041;-66
2023/02/21 03:00:50;;;;;;;53.63;21.23;;;;;;;-142.75;100.00;77702.31;4971795;28;20038;-66
2023/02/21 03:03:21;;;;;;;56.47;22.42;;;;;;;-142.75;100.00;77694.44;4971836;28;20073;-66
2023/02/21 03:06:21;;;;;;;51.60;22.73;;;;;;;-142.75;100.00;77692.47;4970568;28;20053;-66
2023/02/21 03:09:00;;;;;;;61.25;22.25;;;;;;;-142.75;100.00;77688.53;4971570;28;20125;-66
2023/02/21 03:11:26;;;;;;;48.30;21.80;;;;;;;-142.75;100.00;77696.41;4971618;28;20050;-66
2023/02/21 03:14:05;;;;;;;53.45;22.13;;;;;;;-142.75;100.00;77696.41;4971811;28;20574;-66
2023/02/21 03:16:39;;;;;;;60.85;23.88;;;;;;;-142.75;100.00;77692.47;4971796;28;20023;-66
2023/02/21 03:19:16;;;;;;;57.80;23.33;;;;;;;-142.75;100.00;77684.59;4971415;28;20055;-67
2023/02/21 03:21:47;;;;;;;54.55;22.35;;;;;;;-142.75;100.00;77690.50;4971862;28;20049;-67
2023/02/21 03:24:14;;;;;;;57.50;23.33;;;;;;;-142.75;100.00;77692.47;4971779;28;20022;-66
2023/02/21 03:26:43;;;;;;;58.25;23.58;;;;;;;-142.75;100.00;77686.56;4971736;28;20093;-66
2023/02/21 03:29:10;;;;;;;51.95;21.75;;;;;;;-142.75;100.00;77704.28;4969908;28;20496;-66
2023/02/21 03:31:44;;;;;;;47.58;21.42;;;;;;;-142.75;100.00;77692.47;4971679;28;20022;-66
2023/02/21 03:34:09;;;;;;;53.38;21.98;;;;;;;-142.75;100.00;77682.63;4971646;28;20026;-66
2023/02/21 03:36:36;;;;;;;60.72;22.15;;;;;;;-142.75;100.00;77688.53;4971651;28;20033;-66
2023/02/21 03:39:02;;;;;;;53.90;24.15;;;;;;;-142.75;100.00;77702.31;4971387;28;20090;-66
2023/02/21 03:41:27;;;;;;;53.40;21.83;;;;;;;-142.75;100.00;77692.47;4971606;28;20106;-66
2023/02/21 03:43:53;;;;;;;;;;;;;;;-142.75;100.00;77686.56;4970770;28;20514;-66
2023/02/21 03:46:18;;;;;;;52.65;20.88;;;;;;;-142.75;100.00;77688.53;4971672;28;19913;-67
2023/02/21 03:48:44;;;;;;;56.45;22.17;;;;;;;-142.75;100.00;77682.63;4971064;28;20027;-66
2023/02/21 03:51:09;;;;;;;54.00;23.88;;;;;;;-142.75;100.00;77684.59;4971422;28;20106;-66
2023/02/21 03:53:34;;;;;;;61.03;23.25;;;;;;;-142.75;100.00;77684.59;4971525;28;20023;-67
2023/02/21 03:56:00;;;;;;;56.08;24.30;;;;;;;-142.75;100.00;77686.56;4971384;28;20023;-66
2023/02/21 03:58:25;;;;;;;47.78;22.63;;;;;;;-142.75;100.00;77684.59;4971461;28;20023;-66
2023/02/21 04:00:52;;;;;;;56.10;22.10;;;;;;;-142.75;100.00;77684.59;4970994;28;20502;-66
2023/02/21 04:03:17;;;;;;;56.20;23.77;;;;;;;-142.75;100.00;77678.69;4971251;28;20396;-68
2023/02/21 04:05:43;;;;;;;51.30;20.75;;;;;;;-142.75;100.00;77672.78;4971161;28;20027;-66
2023/02/21 04:08:08;;;;;;;62.10;23.15;;;;;;;-142.75;100.00;77660.97;4971140;28;20038;-67
2023/02/21 04:10:33;;;;;;;62.03;23.73;;;;;;;-142.75;100.00;77678.69;4971140;28;20023;-66
2023/02/21 04:12:59;;;;;;;;;;;;;;;-142.75;100.00;77664.91;4975036;28;20023;-66
2023/02/21 04:15:24;;;;;;;54.45;21.42;;;;;;;-142.75;100.00;77684.59;4974945;28;19922;-66
2023/02/21 04:17:49;;;;;;;;;;;;;;;-142.75;100.00;77666.88;4975086;28;20027;-66
2023/02/21 04:20:15;;;;;;;50.95;21.08;;;;;;;-142.75;100.00;77660.97;4974683;28;19947;-66
2023/02/21 04:22:40;;;;;;;;;;;;;;;-142.75;100.00;77660.97;4974936;28;20046;-66
2023/02/21 04:25:06;;;;;;;55.83;21.75;;;;;;;-142.75;100.00;77657.03;4974608;28;19996;-66
2023/02/21 04:27:33;;;;;;;54.17;21.15;;;;;;;-142.75;100.00;77662.94;4974444;28;20110;-66
2023/02/21 04:29:59;;;;;;;60.97;22.92;;;;;;;-142.75;100.00;77672.78;4974473;28;20023;-66
2023/02/21 04:32:24;;;;;;;54.28;21.95;;;;;;;-142.75;100.00;77686.56;4974464;28;20411;-66
2023/02/21 04:34:49;;;;;;;57.22;22.92;;;;;;;-142.75;100.00;77674.75;4974320;28;20500;-66
2023/02/21 04:37:15;;;;;;;56.95;22.45;;;;;;;-142.75;100.00;77674.75;4974489;28;20443;-66
2023/02/21 04:39:40;;;;;;;54.40;21.88;;;;;;;-142.75;100.00;77704.28;4974146;28;20106;-66
2023/02/21 04:42:05;;;;;;;48.25;22.58;;;;;;;-142.75;100.00;77694.44;4974175;28;20030;-66
2023/02/21 04:44:30;;;;;;;49.97;21.00;;;;;;;-142.75;100.00;77684.59;4974305;28;20031;-66
2023/02/21 04:46:56;;;;;;;53.45;21.75;;;;;;;-142.75;100.00;77676.72;4974041;28;20038;-67
2023/02/21 04:49:24;;;;;;;58.10;23.40;;;;;;;-142.75;100.00;77672.78;4973773;28;20034;-66
2023/02/21 04:51:50;;;;;;;60.83;22.13;;;;;;;-142.75;100.00;77672.78;4974134;28;20469;-66
2023/02/21 04:54:15;;;;;;;60.55;23.10;;;;;;;-142.75;100.00;77647.19;4974075;28;20062;-66
2023/02/21 04:56:41;;;;;;;53.00;22.13;;;;;;;-142.75;100.00;77651.13;4973947;28;20492;-66
2023/02/21 04:59:06;;;;;;;54.75;24.17;;;;;;;-142.75;100.00;77651.13;4973706;28;20031;-66
2023/02/21 05:01:31;;;;;;;52.97;22.48;;;;;;;-142.75;100.00;77653.09;4973940;28;20031;-66
2023/02/21 05:03:58;;;;;;;51.97;22.27;;;;;;;-142.75;100.00;77649.16;4973603;28;20030;-66
2023/02/21 05:06:25;;;;;;;54.28;23.67;;;;;;;-142.75;100.00;77649.16;4973948;28;20026;-66
2023/02/21 05:08:50;;;;;;;58.38;22.67;;;;;;;-142.75;100.00;77657.03;4973467;28;20114;-66
2023/02/21 05:11:17;;;;;;;59.65;24.20;;;;;;;-142.75;100.00;77649.16;4973557;28;20121;-66
2023/02/21 05:13:43;;;;;;;51.83;23.40;;;;;;;-142.75;100.00;77649.16;4973363;28;20027;-66
2023/02/21 05:16:08;;;;;;;56.45;22.63;;;;;;;-142.75;100.00;77662.94;4973620;28;20030;-66
2023/02/21 05:18:36;;;;;;;59.67;22.80;;;;;;;-142.75;100.00;77660.97;4973168;28;20535;-66
2023/02/21 05:21:01;;;;;;;63.95;24.50;;;;;;;-142.75;100.00;77672.78;4956157;28;20031;-66
2023/02/21 05:23:33;;;;;;;57.80;22.75;;;;;;;-142.75;100.00;77660.97;4972341;28;20407;-66
2023/02/21 05:26:18;;;;;;;57.15;22.95;;;;;;;-142.75;100.00;77645.22;4973420;28;20034;-66
2023/02/21 05:28:43;;;;;;;48.78;23.17;;;;;;;-142.75;100.00;77653.09;4972544;28;20526;-66
2023/02/21 05:31:09;;;;;;;56.42;22.30;;;;;;;-142.75;100.00;77653.09;4973111;28;20031;-66
2023/02/21 05:33:34;;;;;;;59.95;22.88;;;;;;;-142.75;100.00;77660.97;4973401;28;20058;-66
2023/02/21 05:35:59;;;;;;;60.72;24.27;;;;;;;-142.75;100.00;77647.19;4973405;28;20422;-66
2023/02/21 05:38:26;;;;;;;53.88;23.98;;;;;;;-142.75;100.00;77645.22;4973546;28;20026;-66
2023/02/21 05:40:52;;;;;;;59.88;24.70;;;;;;;-142.75;100.00;77657.03;4973700;28;20035;-66
2023/02/21 05:43:18;;;;;;;49.60;22.70;;;;;;;-142.75;100.00;77647.19;4973082;28;20115;-67
2023/02/21 05:45:43;;;;;;;55.63;23.23;;;;;;;-142.75;100.00;77649.16;4973097;28;20038;-66
2023/02/21 05:48:09;;;;;;;51.70;24.27;;;;;;;-142.75;100.00;77645.22;4972888;28;20026;-66
2023/02/21 05:50:34;;;;;;;54.33;23.48;;;;;;;-142.75;100.00;77643.25;4961913;28;20499;-66
2023/02/21 05:53:00;;;;;;;49.58;21.40;;;;;;;-142.75;100.00;77659.00;4972986;28;20027;-66
2023/02/21 05:55:26;;;;;;;56.78;25.85;;;;;;;-142.75;100.00;77653.09;4972854;28;20039;-66
2023/02/21 05:57:52;;;;;;;55.53;24.20;;;;;;;-142.75;100.00;77645.22;4972666;28;20022;-66
2023/02/21 06:00:22;;;;;;;56.90;24.20;;;;;;;-142.75;100.00;77637.34;4972661;28;20038;-66
2023/02/21 06:02:49;;;;;;;49.58;23.20;;;;;;;-142.75;100.00;77649.16;4972986;28;20374;-66
2023/02/21 06:05:15;;;;;;;52.92;21.70;;;;;;;-142.75;100.00;77647.19;4972607;28;20031;-67
2023/02/21 06:07:40;;;;;;;58.95;22.92;;;;;;;-142.75;100.00;77639.31;4972623;28;20448;-66
2023/02/21 06:10:06;;;;;;;53.83;22.75;;;;;;;-142.75;100.00;77641.28;4972804;28;20105;-66
2023/02/21 06:12:31;;;;;;;47.13;21.65;;;;;;;-142.75;100.00;77641.28;4972546;28;20058;-66
2023/02/21 06:14:56;;;;;;;55.15;23.33;;;;;;;-142.75;100.00;77645.22;4973048;28;20529;-66
2023/02/21 06:17:22;;;;;;;54.78;22.27;;;;;;;-142.75;100.00;77660.97;4972930;28;20503;-66
2023/02/21 06:19:47;;;;;;;;;;;;;;;-142.75;100.00;77645.22;4972822;28;20037;-66
2023/02/21 06:22:12;;;;;;;51.67;22.15;;;;;;;-142.75;100.00;77676.72;4972449;28;19929;-66
2023/02/21 06:24:38;;;;;;;61.38;24.55;;;;;;;-142.75;100.00;77645.22;4972405;28;20407;-66
2023/02/21 06:27:03;;;;;;;54.58;23.98;;;;;;;-142.75;100.00;77649.16;4970775;28;20023;-66
2023/02/21 06:29:29;;;;;;;55.13;24.23;;;;;;;-142.75;100.00;77653.09;4972070;28;20033;-66
2023/02/21 06:31:59;;;;;;;53.28;24.15;;;;;;;-142.75;100.00;77641.28;4972310;28;20030;-66
2023/02/21 06:34:25;;;;;;;55.47;21.63;;;;;;;-142.75;100.00;77655.06;4972106;28;20120;-66
2023/02/21 06:36:52;;;;;;;51.17;22.23;;;;;;;-142.75;100.00;77660.97;4972386;28;20058;-66
2023/02/21 06:39:17;;;;;;;47.88;23.67;;;;;;;-142.75;100.00;77668.84;4972040;28;20030;-67
2023/02/21 06:41:43;;;;;;;52.70;22.02;;;;;;;-142.75;100.00;77645.22;4972300;28;20054;-66
2023/02/21 06:44:08;;;;;;;61.30;25.02;;;;;;;-142.75;100.00;77649.16;4972090;28;20034;-66
2023/02/21 06:46:35;;;;;;;53.22;23.23;;;;;;;-142.75;100.00;77643.25;4972056;28;20485;-66
2023/02/21 06:49:01;;;;;;;66.60;25.30;;;;;;;-142.75;100.00;77649.16;4971795;28;20708;-66
2023/02/21 06:51:28;;;;;;;63.08;24.08;;;;;;;-142.75;100.00;77674.75;4971978;28;20110;-65
2023/02/21 06:53:54;;;;;;;54.20;25.65;;;;;;;-142.75;100.00;77666.88;4971797;28;20038;-66
2023/02/21 06:56:19;;;;;;;56.30;23.55;;;;;;;-142.75;100.00;77657.03;4970177;28;20030;-67
2023/02/21 06:58:45;;;;;;;56.88;22.70;;;;;;;-142.75;100.00;77649.16;4971695;28;20027;-66
2023/02/21 07:01:10;;;;;;;55.30;23.08;;;;;;;-142.75;100.00;77649.16;4971935;28;20481;-66
2023/02/21 07:03:39;;;;;;;57.42;24.50;;;;;;;-142.75;100.00;77639.31;4971932;28;20041;-66
2023/02/21 07:06:04;;;;;;;54.80;23.80;;;;;;;-142.75;100.00;77647.19;4971890;28;20069;-66
2023/02/21 07:08:30;;;;;;;58.72;23.08;;;;;;;-142.75;100.00;77655.06;4971492;28;20038;-66
2023/02/21 07:10:55;;;;;;;55.83;23.38;;;;;;;-142.75;100.00;77657.03;4971724;28;20037;-66
2023/02/21 07:13:20;;;;;;;;;;;;;;;-142.75;100.00;77657.03;4972088;28;20058;-66
2023/02/21 07:15:46;;;;;;;60.88;22.65;;;;;;;-142.75;100.00;77670.81;4971761;28;19969;-66
2023/02/21 07:18:12;;;;;;;64.72;25.10;;;;;;;-142.75;100.00;77668.84;4971779;28;20061;-66
2023/02/21 07:20:37;;;;;;;56.47;23.67;;;;;;;-142.75;100.00;77645.22;4971490;28;20038;-67
2023/02/21 07:23:02;;;;;;;61.42;24.20;;;;;;;-142.75;100.00;77649.16;4971507;28;20110;-66
2023/02/21 07:25:28;;;;;;;49.65;21.70;;;;;;;-142.75;100.00;77649.16;4971655;28;20022;-67
2023/02/21 07:27:54;;;;;;;51.97;23.90;;;;;;;-142.75;100.00;77653.09;4971250;28;20122;-66
2023/02/21 07:30:19;;;;;;;59.05;23.50;;;;;;;-142.75;100.00;77645.22;4972030;28;20110;-67
2023/02/21 07:32:45;;;;;;;;;;;;;;;-142.75;100.00;77629.47;4971685;28;20073;-66
2023/02/21 07:35:11;;;;;;;60.63;23.48;;;;;;;-142.75;100.00;77641.28;4970223;28;19929;-67
2023/02/21 07:37:36;;;;;;;59.58;24.55;;;;;;;-142.75;100.00;77643.25;4972262;28;20085;-66
2023/02/21 07:40:02;;;;;;;56.17;22.95;;;;;;;-142.75;100.00;77649.16;4971346;28;20027;-66
2023/02/21 07:42:28;;;;;;;56.10;24.33;;;;;;;-142.75;100.00;77649.16;4971460;28;20030;-66
2023/02/21 07:44:57;;;;;;;59.22;23.05;;;;;;;-142.75;100.00;77649.16;4971686;28;20543;-66
2023/02/21 07:47:26;;;;;;;56.58;24.88;;;;;;;-142.75;100.00;77633.41;4974674;28;20026;-66
2023/02/21 07:49:52;;;;;;;58.13;23.70;;;;;;;-142.75;100.00;77641.28;4957970;28;20038;-66
2023/02/21 07:52:19;;;;;;;63.78;22.95;;;;;;;-142.75;100.00;77641.28;4975112;28;20165;-66
2023/02/21 07:54:45;;;;;;;61.95;24.42;;;;;;;-142.75;100.00;77643.25;4975282;28;20095;-67
2023/02/21 07:57:10;;;;;;;58.35;23.95;;;;;;;-142.75;100.00;77643.25;4975018;28;20034;-66
2023/02/21 07:59:36;;;;;;;55.58;22.80;;;;;;;-142.75;100.00;77649.16;4974905;28;20026;-68
2023/02/21 08:02:01;;;;;;;;;;;;;;;-142.75;100.00;77641.28;4975547;28;20031;-66
2023/02/21 08:04:26;;;;;;;64.07;23.38;;;;;;;-142.75;100.00;77651.13;4975088;28;19920;-66
2023/02/21 08:06:58;;;;;;;57.53;24.10;;;;;;;-142.75;100.00;77643.25;4974870;28;20030;-66
2023/02/21 08:09:24;;;;;;;63.00;22.25;;;;;;;-142.75;100.00;77649.16;4974454;28;20058;-67
2023/02/21 08:11:49;;;;;;;64.82;23.67;;;;;;;-142.75;100.00;77641.28;4974454;28;20550;-66
2023/02/21 08:14:14;;;;;;;66.45;24.55;;;;;;;-142.75;100.00;77659.00;4974845;28;20039;-66
2023/02/21 08:16:40;;;;;;;60.42;22.00;;;;;;;-142.75;100.00;77659.00;4974682;28;20034;-66
2023/02/21 08:19:05;;;;;;;57.30;22.23;;;;;;;-142.75;100.00;77649.16;4974719;28;20073;-66
2023/02/21 08:21:30;;;;;;;61.20;23.05;;;;;;;-142.75;100.00;77655.06;4975127;28;20133;-66
2023/02/21 08:23:55;;;;;;;54.10;20.95;;;;;;;-142.75;100.00;77655.06;4974796;28;20042;-66
2023/02/21 08:26:21;;;;;;;63.72;24.55;;;;;;;-142.75;100.00;77664.91;4974751;28;20082;-66
2023/02/21 08:28:47;;;;;;;60.83;21.48;;;;;;;-142.75;100.00;77657.03;4974055;28;20473;-66
2023/02/21 08:31:12;;;;;;;51.88;21.23;;;;;;;-142.75;100.00;77655.06;4974567;28;20054;-66
2023/02/21 08:33:37;;;;;;;60.35;20.70;;;;;;;-142.75;100.00;77653.09;4974474;28;20455;-66
2023/02/21 08:36:04;;;;;;;63.45;23.05;;;;;;;-142.75;100.00;77653.09;4974491;28;20113;-66
2023/02/21 08:38:29;;;;;;;54.70;22.02;;;;;;;-142.75;100.00;77659.00;4974227;28;20029;-66
2023/02/21 08:40:54;;;;;;;58.72;21.17;;;;;;;-142.75;100.00;77655.06;4974353;28;20408;-66
2023/02/21 08:43:20;;;;;;;58.97;21.17;;;;;;;-142.75;100.00;77662.94;4974315;28;20042;-66
2023/02/21 08:45:45;;;;;;;60.08;21.38;;;;;;;-142.75;100.00;77659.00;4974329;28;20065;-66
2023/02/21 08:48:11;;;;;;;;;;;;;;;-142.75;100.00;77659.00;4974637;28;20027;-66
2023/02/21 08:50:36;;;;;;;58.45;20.95;;;;;;;-142.75;100.00;77645.22;4974113;28;19920;-66
2023/02/21 08:53:02;;;;;;;61.55;21.27;;;;;;;-142.75;100.00;77643.25;4974149;28;20114;-66
2023/02/21 08:55:27;;;;;;;64.43;21.92;;;;;;;-142.75;100.00;77637.34;4974131;28;20121;-66
2023/02/21 08:57:53;;;;;;;61.22;22.17;;;;;;;-142.75;100.00;77623.56;4973827;28;20031;-66
2023/02/21 09:00:27;;;;;;;57.00;21.33;;;;;;;-142.75;100.00;77629.47;4974000;28;20046;-66
2023/02/21 09:02:53;;;;;;;58.90;21.80;;;;;;;-142.75;100.00;77645.22;4974740;28;20031;-67
2023/02/21 09:05:23;;;;;;;60.45;21.13;;;;;;;-142.75;100.00;77623.56;4975818;28;20026;-67
2023/02/21 09:07:53;;;;;;;53.20;21.67;;;;;;;-142.75;100.00;77635.38;4974439;28;20050;-67
2023/02/21 09:10:19;;;;;;;67.18;22.83;;;;;;;-142.75;100.00;77633.41;4972835;28;20030;-68
2023/02/21 09:12:45;;;;;;;56.65;21.13;;;;;;;-142.75;100.00;77629.47;4972918;28;20037;-68
2023/02/21 09:15:12;;;;;;;60.42;21.38;;;;;;;-142.75;100.00;77621.59;4974505;28;20023;-67
2023/02/21 09:17:38;;;;;;;67.07;22.77;;;;;;;-142.75;100.00;77633.41;4973239;28;20030;-67
2023/02/21 09:20:07;;;;;;;49.65;20.95;;;;;;;-142.75;100.00;77609.78;4973290;28;20080;-67
2023/02/21 09:22:33;;;;;;;68.75;22.92;;;;;;;-142.75;100.00;77613.72;4968371;28;20041;-68
2023/02/21 09:24:59;;;;;;;62.88;21.80;;;;;;;-142.75;100.00;77611.75;4972466;28;20065;-67
2023/02/21 09:27:35;;;;;;;56.92;21.58;;;;;;;-142.75;100.00;77623.56;4972932;28;20093;-67
2023/02/21 09:30:06;;;;;;;57.30;22.13;;;;;;;-142.75;100.00;77621.59;4970430;28;20747;-67
2023/02/21 09:32:31;;;;;;;58.88;21.95;;;;;;;-142.75;100.00;77613.72;4970405;28;20737;-66
2023/02/21 09:34:57;;;;;;;56.40;20.65;;;;;;;-142.75;100.00;77625.53;4971121;28;20043;-66
2023/02/21 09:37:23;;;;;;;55.85;21.00;;;;;;;-142.75;100.00;77623.56;4971086;28;20432;-67
2023/02/21 09:39:48;;;;;;;51.28;20.10;;;;;;;-142.75;100.00;77623.56;4972145;28;20050;-67
2023/02/21 09:42:17;;;;;;;61.33;21.88;;;;;;;-142.75;100.00;77617.66;4968484;28;20030;-67
2023/02/21 09:44:44;;;;;;;66.60;23.00;;;;;;;-142.75;100.00;77613.72;4972020;28;20512;-67
2023/02/21 09:47:18;;;;;;;66.35;23.00;;;;;;;-142.75;100.00;77594.03;4972220;28;20023;-69
2023/02/21 09:49:45;;;;;;;65.95;22.63;;;;;;;-142.75;100.00;77603.88;4970549;28;20619;-67
2023/02/21 09:52:35;;;;;;;65.43;22.20;;;;;;;-142.75;100.00;77597.97;4971820;28;20381;-67
2023/02/21 09:55:08;;;;;;;60.55;20.67;;;;;;;-142.75;100.00;77617.66;4972523;28;20022;-67
2023/02/21 09:57:34;;;;;;;60.85;21.83;;;;;;;-142.75;100.00;77613.72;4972722;28;20128;-66
2023/02/21 09:59:59;;;;;;;65.95;22.02;;;;;;;-142.75;100.00;77609.78;4972438;28;20026;-67
2023/02/21 10:02:54;;;;;;;70.68;24.90;;;;;;;-142.75;100.00;77607.81;4971208;28;20505;-67
2023/02/21 10:05:37;;;;;;;60.22;21.98;;;;;;;-142.75;100.00;77603.88;4954141;28;20035;-67
2023/02/21 10:08:31;;;;;;;59.97;21.63;;;;;;;-142.75;100.00;77597.97;4972353;28;20051;-67
2023/02/21 10:11:06;;;;;;;61.92;21.05;;;;;;;-142.75;100.00;77605.84;4972679;28;20026;-67
2023/02/21 10:13:45;;;;;;;50.10;21.55;;;;;;;-142.75;100.00;77605.84;4972734;28;20078;-67
2023/02/21 10:16:21;;;;;;;51.22;20.23;;;;;;;-142.75;100.00;77605.84;4972548;28;20050;-67
2023/02/21 10:19:23;;;;;;;60.15;22.15;;;;;;;-142.75;100.00;77594.03;4972154;28;20444;-67
2023/02/21 10:21:49;;;;;;;59.92;21.48;;;;;;;-142.75;100.00;77594.03;4972526;28;20109;-67
2023/02/21 10:24:21;;;;;;;54.67;19.42;;;;;;;-142.75;100.00;77588.13;4972468;28;20092;-67
2023/02/21 10:27:10;;;;;;;53.25;19.73;;;;;;;-142.75;100.00;77582.22;4972468;28;20023;-67
2023/02/21 10:29:46;;;;;;;49.58;18.27;;;;;;;-142.75;100.00;77588.13;4972264;28;20496;-66
2023/02/21 10:32:11;;;;;;;51.17;19.17;;;;;;;-142.75;100.00;77594.03;4966632;28;20109;-67
2023/02/21 10:34:37;;;;;;;45.20;19.13;;;;;;;-142.75;100.00;77588.13;4969361;28;20105;-67
2023/02/21 10:37:18;;;;;;;44.85;18.27;;;;;;;-142.75;100.00;77597.97;4972233;28;20101;-67
2023/02/21 10:39:49;;;;;;;54.50;18.27;;;;;;;-142.75;100.00;77586.16;4971299;28;20030;-65
2023/02/21 10:42:26;;;;;;;40.90;16.25;;;;;;;-142.75;100.00;77584.19;4973391;28;20620;-65
2023/02/21 10:44:52;;;;;;;38.35;16.17;;;;;;;-142.75;100.00;77597.97;4972859;28;20069;-65
2023/02/21 10:47:23;;;;;;;40.67;16.08;;;;;;;-142.75;100.00;77578.28;4972269;28;20058;-65
2023/02/21 10:50:06;;;;;;;39.90;16.92;;;;;;;-142.75;100.00;77590.09;4972268;28;20029;-65
2023/02/21 10:52:57;;;;;;;36.53;14.98;;;;;;;-142.75;100.00;77582.22;4972772;28;20504;-67
2023/02/21 10:55:22;;;;;;;37.47;14.10;;;;;;;-142.75;100.00;77590.09;4968239;28;20455;-66
2023/02/21 10:58:04;;;;;;;32.95;13.57;;;;;;;-142.75;100.00;77546.78;4971564;28;20082;-67
2023/02/21 11:00:36;;;;;;;36.67;13.93;;;;;;;-142.75;100.00;77566.47;4971530;28;20101;-66
2023/02/21 11:03:26;;;;;;;34.50;13.65;;;;;;;-142.75;100.00;77540.88;4970544;28;20432;-68
2023/02/21 11:05:56;;;;;;;30.58;13.77;;;;;;;-142.75;100.00;77544.81;4971125;28;20058;-67
2023/02/21 11:08:39;;;;;;;30.95;13.63;;;;;;;-142.75;100.00;77540.88;4970905;28;20031;-68
2023/02/21 11:11:04;;;;;;;32.85;13.30;;;;;;;-142.75;100.00;77550.72;4971257;28;20034;-67
2023/02/21 11:13:32;;;;;;;30.25;13.05;;;;;;;-142.75;100.00;77558.59;4970949;28;20046;-67
2023/02/21 11:16:29;;;;;;;31.40;13.23;;;;;;;-142.75;100.00;77556.63;4953224;28;20037;-67
2023/02/21 11:19:06;;;;;;;28.73;12.30;;;;;;;-142.75;100.00;77546.78;4951779;28;20030;-67
2023/02/21 11:21:31;;;;;;;;;;;;;;;-142.75;100.00;77544.81;4960277;28;20031;-67
2023/02/21 11:24:03;;;;;;;28.27;11.83;;;;;;;-142.75;100.00;77550.72;4975126;28;20531;-66
2023/02/21 11:26:36;;;;;;;26.05;11.80;;;;;;;-142.75;100.00;77552.69;4972170;28;20027;-67
2023/02/21 11:29:10;;;;;;;27.67;11.10;;;;;;;-142.75;100.00;77546.78;4974375;28;20031;-68
2023/02/21 11:31:36;;;;;;;21.48;10.20;;;;;;;-142.75;100.00;77550.72;4974214;28;20053;-68
2023/02/21 11:34:07;;;;;;;27.08;10.82;;;;;;;-142.75;100.00;77554.66;4955337;28;22493;-65
2023/02/21 11:36:36;;;;;;;23.00;10.25;;;;;;;-142.75;100.00;77544.81;4975986;28;20038;-67
2023/02/21 11:39:22;;;;;;;18.98;8.65;;;;;;;-142.75;100.00;77513.31;4975184;28;20610;-66
2023/02/21 11:41:53;;;;;;;23.70;9.52;;;;;;;-142.75;100.00;77511.34;4973742;28;20041;-65
2023/02/21 11:44:23;;;;;;;19.58;9.32;;;;;;;-142.75;100.00;77513.31;4974684;28;20030;-66
2023/02/21 11:46:52;;;;;;;19.42;8.93;;;;;;;-142.75;100.00;77519.22;4958535;28;20500;-66
2023/02/21 11:49:32;;;;;;;21.42;9.27;;;;;;;-142.75;100.00;77515.28;4973254;28;20027;-65
2023/02/21 11:52:02;;;;;;;20.25;9.35;;;;;;;-142.75;100.00;77507.41;4975384;28;20101;-67
2023/02/21 11:54:29;;;;;;;16.50;7.82;;;;;;;-142.75;100.00;77533.00;4973425;28;20034;-67
2023/02/21 11:57:19;;;;;;;17.23;7.63;;;;;;;-142.75;100.00;77507.41;4974222;28;20034;-67
2023/02/21 12:00:09;;;;;;;17.08;7.85;;;;;;;-142.75;100.00;77491.66;4974118;28;20022;-66
2023/02/21 12:03:00;;;;;;;18.55;7.20;;;;;;;-142.75;100.00;77503.47;4973006;28;20022;-68
2023/02/21 12:05:44;;;;;;;18.02;8.35;;;;;;;-142.75;100.00;77495.59;4975157;28;20055;-67
2023/02/21 12:08:51;;;;;;;17.52;8.10;;;;;;;-142.75;100.00;77536.94;4972422;28;20054;-67
2023/02/21 12:11:22;;;;;;;16.38;7.78;;;;;;;-142.75;100.00;77519.22;4952553;28;20042;-68
2023/02/21 12:14:01;;;;;;;16.42;8.20;;;;;;;-142.75;100.00;77507.41;4973497;28;20037;-68
2023/02/21 12:16:48;;;;;;;15.68;7.25;;;;;;;-142.75;100.00;77491.66;4974320;28;20038;-67
2023/02/21 12:19:29;;;;;;;18.20;8.52;;;;;;;-142.75;100.00;77497.56;4974629;28;20521;-67
2023/02/21 12:22:19;;;;;;;17.45;7.85;;;;;;;-142.75;100.00;77499.53;4974011;28;20034;-67
2023/02/21 12:24:54;;;;;;;17.27;8.10;;;;;;;-142.75;100.00;77515.28;4973228;28;20059;-67
2023/02/21 12:27:52;;;;;;;15.82;7.18;;;;;;;-142.75;100.00;77501.50;4973558;28;20093;-67
2023/02/21 12:30:51;;;;;;;15.95;7.32;;;;;;;-142.75;100.00;77491.66;4972819;28;20034;-67
2023/02/21 12:33:26;;;;;;;18.55;8.38;;;;;;;-142.75;100.00;77485.75;4970627;28;20035;-67
2023/02/21 12:36:14;;;;;;;19.10;7.97;;;;;;;-142.75;100.00;77501.50;4969392;28;20104;-67
2023/02/21 12:38:45;;;;;;;19.90;8.07;;;;;;;-142.75;100.00;77493.63;4971056;28;20030;-67
2023/02/21 12:41:55;;;;;;;15.95;7.45;;;;;;;-142.75;100.00;77479.84;4973449;28;20049;-69
2023/02/21 12:44:26;;;;;;;14.82;7.35;;;;;;;-142.75;100.00;77499.53;4935037;29;20110;-67
2023/02/21 12:46:56;;;;;;;16.02;7.47;;;;;;;-142.75;100.00;77497.56;4946782;29;20572;-67
2023/02/21 12:49:41;;;;;;;16.17;6.75;;;;;;;-142.75;100.00;77503.47;4956159;28;20579;-67
2023/02/21 12:52:20;;;;;;;18.10;7.00;;;;;;;-142.75;100.00;77501.50;4973441;28;20458;-67
2023/02/21 12:55:20;;;;;;;21.05;7.50;;;;;;;-142.75;100.00;77527.09;4973183;28;20022;-67
2023/02/21 12:58:13;;;;;;;14.63;6.05;;;;;;;-142.75;100.00;77507.41;4972928;28;20023;-67
2023/02/21 13:00:48;;;;;;;16.63;6.38;;;;;;;-142.75;100.00;77517.25;4971305;28;20034;-67
2023/02/21 13:03:29;;;;;;;11.55;5.82;;;;;;;-142.75;100.00;77521.19;4955593;28;20062;-67
2023/02/21 13:06:01;;;;;;;17.77;6.95;;;;;;;-142.75;100.00;77523.16;4973822;28;20623;-67
2023/02/21 13:09:05;;;;;;;14.82;6.53;;;;;;;-142.75;100.00;77511.34;4972508;28;20034;-67
2023/02/21 13:12:08;;;;;;;13.18;5.70;;;;;;;-142.75;100.00;77513.31;4970631;28;20059;-67
2023/02/21 13:14:41;;;;;;;10.77;5.15;;;;;;;-142.75;100.00;77501.50;4973911;28;20023;-67
2023/02/21 13:17:14;;;;;;;10.60;5.28;;;;;;;-142.75;100.00;77505.44;4972812;28;20030;-67
2023/02/21 13:19:46;;;;;;;13.20;5.88;;;;;;;-142.75;100.00;77487.72;4973068;28;20034;-67
2023/02/21 13:25:36;;;;;;;10.32;4.80;;;;;;;-142.75;100.00;77503.47;4972812;28;20034;-67
2023/02/21 13:28:27;;;;;;;9.85;4.40;;;;;;;-142.75;100.00;77503.47;4973058;28;20551;-67
2023/02/21 13:30:58;;;;;;;10.75;4.90;;;;;;;-142.75;100.00;77499.53;4971648;28;20106;-67
2023/02/21 13:33:45;;;;;;;8.15;4.38;;;;;;;-142.75;100.00;77503.47;4970322;28;20441;-66
2023/02/21 13:36:24;;;;;;;11.02;4.60;;;;;;;-142.75;100.00;77499.53;4970214;28;20512;-67